Time;durP1;ratioP1;P1;durP2;ratioP2;P2;SDS_P1;SDS_P2;PMS_P1;PMS_P2;Temp;Humidity;BMP_temperature;BMP_pressure;BME280_temperature;BME280_humidity;BME280_pressure;Samples;Min_cycle;Max_cycle;Signal;HPM_P1;HPM_P2
2023/08/24 00:00:13;;;;;;;10.40;7.60;;;;;;;18.68;83.86;96939.16;108938;1272;22557;-76
2023/08/24 00:03:02;;;;;;;9.10;7.70;;;;;;;18.66;83.71;96937.05;108927;1264;22524;-77
2023/08/24 00:05:36;;;;;;;10.40;9.30;;;;;;;18.69;83.91;96935.52;108967;1271;22539;-77
2023/08/24 00:08:06;;;;;;;13.70;9.70;;;;;;;18.70;83.96;96936.19;108901;1268;22535;-77
2023/08/24 00:10:35;;;;;;;13.40;10.10;;;;;;;18.69;83.88;96935.71;108952;1272;25077;-76
2023/08/24 00:13:04;;;;;;;11.60;10.00;;;;;;;18.67;83.76;96937.59;108875;1272;23344;-77
2023/08/24 00:15:32;;;;;;;8.40;7.10;;;;;;;18.63;83.58;96937.38;108924;1272;24836;-77
2023/08/24 00:18:01;;;;;;;8.90;7.20;;;;;;;18.61;83.49;96937.56;108818;1267;22642;-77
2023/08/24 00:20:29;;;;;;;11.40;7.70;;;;;;;18.63;83.37;96938.52;108841;1266;25303;-76
2023/08/24 00:22:57;;;;;;;8.00;6.40;;;;;;;18.65;83.03;96938.73;108848;1258;22524;-76
2023/08/24 00:25:25;;;;;;;8.60;7.10;;;;;;;18.62;82.72;96940.80;108921;1270;22661;-77
2023/08/24 00:27:54;;;;;;;10.40;7.30;;;;;;;18.53;82.33;96941.38;108926;1272;22560;-77
2023/08/24 00:30:23;;;;;;;11.00;7.50;;;;;;;18.37;82.38;96944.86;108926;1272;24810;-77
2023/08/24 00:32:51;;;;;;;12.70;8.80;;;;;;;18.35;82.90;96943.04;108882;1272;22525;-77
2023/08/24 00:35:20;;;;;;;11.10;9.10;;;;;;;18.26;82.93;96943.31;108847;1272;22525;-77
2023/08/24 00:37:48;;;;;;;10.00;8.10;;;;;;;18.11;83.25;96937.24;108851;1272;33788;-77
2023/08/24 00:40:17;;;;;;;12.50;10.00;;;;;;;17.99;83.49;96940.33;108935;1272;22546;-77
2023/08/24 00:42:46;;;;;;;16.80;13.50;;;;;;;17.92;84.20;96936.27;108905;1272;22638;-77
2023/08/24 00:45:15;;;;;;;11.50;10.30;;;;;;;17.98;85.16;96939.21;108971;1269;22534;-77
2023/08/24 00:47:45;;;;;;;12.40;10.60;;;;;;;18.07;85.33;96937.38;109095;1271;22590;-77
2023/08/24 00:50:14;;;;;;;11.60;9.50;;;;;;;18.16;85.28;96935.54;109186;1272;22530;-77
2023/08/24 00:52:43;;;;;;;9.70;8.30;;;;;;;18.22;85.02;96937.42;109127;1264;22588;-77
2023/08/24 00:55:12;;;;;;;11.60;8.30;;;;;;;18.16;84.25;96938.21;109188;1272;22991;-77
2023/08/24 00:57:42;;;;;;;14.50;8.80;;;;;;;18.12;84.53;96938.44;109091;1270;22528;-77
2023/08/24 01:00:11;;;;;;;10.80;8.20;;;;;;;18.15;84.43;96937.01;109167;1265;22584;-77
2023/08/24 01:02:40;;;;;;;9.40;8.10;;;;;;;18.16;84.41;96936.87;109184;1271;22638;-77
2023/08/24 01:05:09;;;;;;;11.40;7.40;;;;;;;18.19;84.23;96937.15;109166;1264;22537;-77
2023/08/24 01:07:40;;;;;;;9.70;7.30;;;;;;;18.16;84.11;96941.77;109163;1272;24851;-77
2023/08/24 01:10:11;;;;;;;9.10;7.90;;;;;;;18.11;83.87;96939.80;109181;1272;22534;-77
2023/08/24 01:12:55;;;;;;;11.40;8.50;;;;;;;17.98;83.71;96941.42;109174;1272;22530;-77
2023/08/24 01:15:29;;;;;;;14.10;8.60;;;;;;;17.96;84.24;96941.88;109157;1272;22515;-77
2023/08/24 01:18:05;;;;;;;11.50;8.80;;;;;;;17.97;84.19;96944.61;109180;1269;22549;-77
2023/08/24 01:20:34;;;;;;;12.50;10.60;;;;;;;17.91;84.42;96936.78;109122;1272;22525;-77
2023/08/24 01:23:09;;;;;;;13.90;12.50;;;;;;;17.90;84.63;96941.32;109215;1272;22568;-77
2023/08/24 01:25:42;;;;;;;15.90;14.10;;;;;;;17.83;85.27;96939.85;109237;1264;22521;-77
2023/08/24 01:28:13;;;;;;;12.50;9.10;;;;;;;17.84;85.57;96940.96;109178;1272;22539;-77
2023/08/24 01:30:43;;;;;;;18.20;16.40;;;;;;;17.76;85.80;96940.64;109152;1272;22525;-77
2023/08/24 01:33:12;;;;;;;13.40;11.00;;;;;;;17.78;86.75;96941.29;109173;1271;25381;-77
2023/08/24 01:35:40;;;;;;;13.40;11.90;;;;;;;17.86;86.71;96939.35;109181;1270;25380;-77
2023/08/24 01:38:12;;;;;;;12.30;9.20;;;;;;;17.92;86.52;96938.64;109183;1267;24278;-77
2023/08/24 01:40:50;;;;;;;12.30;9.20;;;;;;;17.95;85.99;96943.52;109289;1272;22529;-77
2023/08/24 01:43:21;;;;;;;12.70;8.90;;;;;;;17.95;85.66;96940.67;109162;1272;22543;-77
2023/08/24 01:45:52;;;;;;;8.90;8.00;;;;;;;17.89;85.03;96941.56;109110;1271;22548;-77
2023/08/24 01:48:21;;;;;;;13.30;11.40;;;;;;;17.70;84.93;96937.42;109120;1271;22552;-77
2023/08/24 01:50:51;;;;;;;9.90;8.90;;;;;;;17.61;85.51;96936.44;109233;1269;22551;-77
2023/08/24 01:53:20;;;;;;;11.20;9.30;;;;;;;17.53;85.53;96939.20;109136;1270;22551;-77
2023/08/24 01:55:48;;;;;;;12.40;8.90;;;;;;;17.46;85.71;96932.70;109147;1272;22494;-77
2023/08/24 01:58:17;;;;;;;13.80;9.60;;;;;;;17.46;85.94;96931.76;109113;1263;22536;-77
2023/08/24 02:00:45;;;;;;;10.20;8.90;;;;;;;17.53;86.18;96932.45;109212;1266;24336;-77
2023/08/24 02:03:13;;;;;;;10.30;9.10;;;;;;;17.59;86.18;96933.66;109218;1272;23683;-77
2023/08/24 02:05:41;;;;;;;9.20;8.30;;;;;;;17.64;86.26;96933.51;109140;1271;25344;-77
2023/08/24 02:08:10;;;;;;;9.20;8.00;;;;;;;17.70;86.18;96931.94;109125;1271;22524;-77
2023/08/24 02:10:38;;;;;;;11.10;8.30;;;;;;;17.74;85.98;96933.66;109186;1268;22526;-77
2023/08/24 02:13:06;;;;;;;11.00;9.00;;;;;;;17.76;85.81;96934.98;109179;1271;24347;-77
2023/08/24 02:15:34;;;;;;;10.40;8.40;;;;;;;17.76;85.78;96932.47;109111;1272;22519;-77
2023/08/24 02:18:04;;;;;;;13.10;10.30;;;;;;;17.75;85.54;96926.56;109187;1271;22626;-77
2023/08/24 02:20:35;;;;;;;;;;;;;;;17.62;85.62;96925.64;109211;1272;22509;-77
2023/08/24 02:23:02;;;;;;;;;;;;;;;17.49;85.93;96923.77;109163;1264;22504;-77
2023/08/24 02:25:30;;;;;;;13.20;9.60;;;;;;;17.39;86.20;96917.05;109215;1272;24345;-77
2023/08/24 02:27:58;;;;;;;11.10;9.40;;;;;;;17.31;86.29;96917.39;109192;1271;23306;-77
2023/08/24 02:30:27;;;;;;;10.60;8.70;;;;;;;17.26;86.46;96916.66;109211;1271;22537;-77
2023/08/24 02:32:55;;;;;;;12.90;11.60;;;;;;;17.19;86.56;96914.17;109206;1268;22565;-77
2023/08/24 02:35:24;;;;;;;12.90;9.60;;;;;;;17.15;86.85;96918.34;109156;1270;25446;-77
2023/08/24 02:37:54;;;;;;;12.50;10.90;;;;;;;17.10;86.84;96920.48;109136;1264;23579;-77
2023/08/24 02:40:23;;;;;;;13.90;12.40;;;;;;;17.10;87.37;96920.26;109178;1264;22647;-77
2023/08/24 02:42:51;;;;;;;15.30;12.70;;;;;;;17.18;88.02;96920.52;109116;1266;22548;-77
2023/08/24 02:45:19;;;;;;;15.20;13.00;;;;;;;17.23;88.36;96924.57;108889;1272;23846;-77
2023/08/24 02:47:48;;;;;;;11.70;10.60;;;;;;;17.21;88.03;96925.95;108818;1272;22536;-77
2023/08/24 02:50:16;;;;;;;12.60;11.30;;;;;;;17.07;87.38;96926.99;108873;1272;22540;-77
2023/08/24 02:52:45;;;;;;;13.90;10.90;;;;;;;16.93;87.63;96928.92;108809;1257;22542;-77
2023/08/24 02:55:16;;;;;;;12.60;10.40;;;;;;;16.84;87.94;96928.75;108904;1270;22521;-76
2023/08/24 02:57:44;;;;;;;12.00;10.30;;;;;;;16.85;88.40;96922.86;108953;1272;21755;-76
2023/08/24 03:00:14;;;;;;;11.70;10.50;;;;;;;16.88;88.64;96929.94;108921;1272;22536;-77
2023/08/24 03:02:42;;;;;;;12.10;10.80;;;;;;;16.90;88.77;96927.50;108915;1265;22582;-76
2023/08/24 03:05:11;;;;;;;14.20;11.90;;;;;;;16.94;88.98;96925.46;108938;1268;22647;-76
2023/08/24 03:07:39;;;;;;;13.30;11.30;;;;;;;16.95;89.04;96928.11;108806;1272;22944;-76
2023/08/24 03:10:09;;;;;;;13.20;11.20;;;;;;;16.98;89.23;96928.64;108926;1272;24720;-76
2023/08/24 03:12:37;;;;;;;14.30;12.30;;;;;;;17.04;89.55;96931.91;108982;1269;25249;-76
2023/08/24 03:15:08;;;;;;;12.40;10.30;;;;;;;17.11;89.56;96930.37;108907;1272;22532;-76
2023/08/24 03:17:36;;;;;;;12.60;11.00;;;;;;;17.02;88.90;96924.98;108915;1272;22993;-76
2023/08/24 03:20:07;;;;;;;15.50;11.10;;;;;;;17.01;89.29;96928.98;108965;1270;22510;-76
2023/08/24 03:22:35;;;;;;;12.40;10.70;;;;;;;17.06;89.63;96925.05;108991;1269;22535;-76
2023/08/24 03:25:05;;;;;;;11.90;10.70;;;;;;;17.13;89.51;96924.30;108956;1272;22528;-77
2023/08/24 03:27:33;;;;;;;14.10;10.50;;;;;;;17.16;89.32;96926.09;109023;1264;26545;-76
2023/08/24 03:30:04;;;;;;;13.00;11.10;;;;;;;17.09;89.02;96924.80;108955;1272;22542;-77
2023/08/24 03:32:32;;;;;;;15.80;13.10;;;;;;;17.00;89.13;96925.80;108976;1272;24307;-76
2023/08/24 03:35:02;;;;;;;16.00;14.40;;;;;;;16.96;89.75;96925.55;108986;1271;22520;-76
2023/08/24 03:37:31;;;;;;;17.40;15.70;;;;;;;17.01;90.48;96920.27;108968;1264;22591;-76
2023/08/24 03:39:59;;;;;;;15.30;13.80;;;;;;;17.09;90.91;96924.38;108936;1264;22536;-76
2023/08/24 03:42:30;;;;;;;14.80;13.30;;;;;;;17.15;90.86;96928.84;108965;1266;25370;-76
2023/08/24 03:45:00;;;;;;;15.20;13.50;;;;;;;17.17;90.42;96930.60;108965;1267;23281;-76
2023/08/24 03:47:28;;;;;;;13.40;11.70;;;;;;;17.11;90.23;96934.70;109024;1270;22544;-75
2023/08/24 03:49:57;;;;;;;15.20;13.70;;;;;;;16.98;90.07;96936.67;108966;1264;25402;-75
2023/08/24 03:52:25;;;;;;;15.40;13.80;;;;;;;16.90;90.38;96937.98;108982;1269;22546;-76
2023/08/24 03:54:53;;;;;;;20.30;18.30;;;;;;;16.84;91.15;96940.73;108958;1271;22658;-76
2023/08/24 03:57:22;;;;;;;17.20;15.50;;;;;;;16.90;92.35;96936.81;108958;1272;22589;-76
2023/08/24 03:59:50;;;;;;;16.20;14.50;;;;;;;16.91;92.13;96941.30;108967;1270;25353;-75
2023/08/24 04:02:18;;;;;;;18.90;17.10;;;;;;;16.90;92.54;96942.11;108939;1272;22516;-76
2023/08/24 04:04:47;;;;;;;18.80;16.90;;;;;;;16.95;93.14;96942.02;108933;1272;22517;-76
2023/08/24 04:07:15;;;;;;;20.30;18.30;;;;;;;16.97;93.38;96943.64;108841;1269;25341;-76
2023/08/24 04:09:45;;;;;;;18.20;16.40;;;;;;;16.99;93.71;96941.21;109258;1270;22497;-76
2023/08/24 04:12:12;;;;;;;;;;;;;;;16.99;94.18;96944.84;108942;1271;22495;-76
2023/08/24 04:14:41;;;;;;;21.40;19.30;;;;;;;17.00;94.39;96940.67;108885;1248;23149;-77
2023/08/24 04:17:09;;;;;;;19.70;17.90;;;;;;;17.03;94.56;96943.89;108815;1271;22552;-76
2023/08/24 04:19:39;;;;;;;20.50;18.50;;;;;;;17.05;94.69;96946.10;108884;1267;22573;-76
2023/08/24 04:22:08;;;;;;;22.20;20.00;;;;;;;17.06;94.83;96945.52;108849;1271;22543;-82
2023/08/24 04:24:36;;;;;;;22.30;20.10;;;;;;;17.11;95.24;96943.61;109176;1271;23213;-76
2023/08/24 04:27:06;;;;;;;21.90;19.60;;;;;;;17.11;95.37;96946.80;108861;1267;22525;-76
2023/08/24 04:29:34;;;;;;;23.80;21.50;;;;;;;17.10;95.64;96940.14;108840;1271;22603;-76
2023/08/24 04:32:03;;;;;;;23.50;21.30;;;;;;;17.10;96.16;96939.60;108880;1271;22563;-75
2023/08/24 04:34:31;;;;;;;21.10;18.90;;;;;;;17.14;96.83;96939.23;108860;1271;22537;-76
2023/08/24 04:37:01;;;;;;;24.90;22.50;;;;;;;17.22;97.36;96940.99;108857;1264;24637;-76
2023/08/24 04:39:30;;;;;;;22.10;19.90;;;;;;;17.47;98.55;96939.17;108872;1269;22533;-76
2023/08/24 04:41:59;;;;;;;21.70;19.60;;;;;;;17.77;98.30;96945.25;108945;1269;22542;-76
2023/08/24 04:44:27;;;;;;;23.10;20.90;;;;;;;17.98;97.51;96944.36;108854;1264;22935;-76
2023/08/24 04:46:56;;;;;;;23.80;21.40;;;;;;;18.13;97.17;96944.16;108852;1271;24205;-76
2023/08/24 04:49:24;;;;;;;22.70;20.40;;;;;;;18.45;97.54;96942.50;108854;1272;23394;-76
2023/08/24 04:51:52;;;;;;;21.80;19.60;;;;;;;18.71;96.76;96942.52;108825;1271;22517;-76
2023/08/24 04:54:21;;;;;;;20.80;18.80;;;;;;;18.83;96.81;96938.73;108877;1264;23064;-76
2023/08/24 04:56:50;;;;;;;19.60;17.70;;;;;;;19.07;96.78;96937.83;108820;1269;23382;-76
2023/08/24 04:59:18;;;;;;;20.10;18.10;;;;;;;19.42;97.10;96942.10;108800;1268;22528;-76
2023/08/24 05:01:47;;;;;;;19.00;17.20;;;;;;;19.88;96.95;96942.31;108850;1264;22544;-76
2023/08/24 05:04:15;;;;;;;18.40;16.60;;;;;;;20.26;95.95;96941.05;108904;1272;22545;-76
2023/08/24 05:06:44;;;;;;;16.70;15.00;;;;;;;20.52;94.35;96940.52;108807;1264;24259;-76
2023/08/24 05:09:12;;;;;;;18.10;16.30;;;;;;;20.37;91.33;96940.59;108879;1269;22663;-76
2023/08/24 05:11:41;;;;;;;16.60;15.00;;;;;;;19.97;90.56;96944.25;108875;1269;22530;-76
2023/08/24 05:14:09;;;;;;;15.70;14.10;;;;;;;19.71;90.93;96944.27;108826;1272;25418;-76
2023/08/24 05:16:37;;;;;;;17.00;15.40;;;;;;;19.59;91.26;96950.87;108802;1267;27234;-76
2023/08/24 05:19:05;;;;;;;16.40;14.80;;;;;;;19.51;91.58;96946.48;108836;1272;22539;-76
2023/08/24 05:21:34;;;;;;;16.80;15.20;;;;;;;19.51;91.68;96952.31;108819;1272;22524;-76
2023/08/24 05:24:04;;;;;;;16.40;14.90;;;;;;;19.46;91.62;96954.30;108853;1272;22524;-76
2023/08/24 05:26:33;;;;;;;17.60;16.00;;;;;;;19.40;91.53;96956.28;108891;1271;25399;-77
2023/08/24 05:29:01;;;;;;;16.50;14.90;;;;;;;19.32;91.19;96960.73;108928;1272;22584;-76
2023/08/24 05:31:30;;;;;;;15.40;14.00;;;;;;;19.17;91.17;96963.79;108808;1264;22523;-76
2023/08/24 05:33:59;;;;;;;17.50;15.90;;;;;;;19.19;92.07;96964.41;108850;1271;22655;-76
2023/08/24 05:36:27;;;;;;;18.70;17.00;;;;;;;19.23;91.98;96960.77;108774;1264;22574;-76
2023/08/24 05:38:56;;;;;;;19.50;17.70;;;;;;;19.53;93.74;96960.35;108776;1266;23661;-76
2023/08/24 05:41:25;;;;;;;19.90;18.00;;;;;;;20.18;94.32;96960.02;108878;1264;25354;-76
2023/08/24 05:43:53;;;;;;;20.40;18.50;;;;;;;20.89;93.90;96960.27;108853;1272;22710;-76
2023/08/24 05:46:23;;;;;;;19.00;17.30;;;;;;;21.55;93.01;96960.02;108882;1264;22540;-76
2023/08/24 05:48:51;;;;;;;19.90;17.90;;;;;;;22.26;91.96;96961.42;108827;1264;22518;-76
2023/08/24 05:51:20;;;;;;;18.00;16.30;;;;;;;22.57;89.35;96962.86;108908;1272;22547;-76
2023/08/24 05:53:48;;;;;;;18.40;16.50;;;;;;;22.84;88.24;96961.70;108861;1271;22546;-76
2023/08/24 05:56:17;;;;;;;17.00;15.40;;;;;;;23.10;86.96;96962.42;108857;1271;22513;-77
2023/08/24 05:58:46;;;;;;;16.60;14.90;;;;;;;23.46;86.61;96961.17;108850;1266;22485;-76
2023/08/24 06:01:14;;;;;;;15.50;14.00;;;;;;;23.90;85.19;96953.77;108875;1264;22509;-77
2023/08/24 06:03:43;;;;;;;15.00;13.60;;;;;;;24.21;83.95;96952.30;108850;1272;25433;-76
2023/08/24 06:06:12;;;;;;;14.50;13.00;;;;;;;24.50;83.13;96956.04;108872;1264;22481;-76
2023/08/24 06:08:40;;;;;;;13.40;12.10;;;;;;;24.82;81.97;96958.21;108912;1271;24251;-76
2023/08/24 06:11:09;;;;;;;14.70;13.30;;;;;;;25.00;80.26;96954.77;108860;1271;24153;-76
2023/08/24 06:13:38;;;;;;;13.60;12.20;;;;;;;25.15;79.54;96957.98;108904;1272;22517;-76
2023/08/24 06:16:06;;;;;;;13.90;12.50;;;;;;;25.09;77.34;96955.73;108811;1264;25327;-76
2023/08/24 06:18:35;;;;;;;14.80;13.30;;;;;;;24.94;77.38;96952.52;108887;1271;22523;-76
2023/08/24 06:21:04;;;;;;;12.90;11.60;;;;;;;24.94;76.60;96947.02;108866;1264;22527;-76
2023/08/24 06:23:33;;;;;;;14.30;12.90;;;;;;;24.99;76.21;96946.02;108859;1272;22524;-76
2023/08/24 06:26:02;;;;;;;13.00;11.70;;;;;;;24.98;75.01;96954.06;108875;1272;22634;-76
2023/08/24 06:28:32;;;;;;;13.20;12.00;;;;;;;24.68;74.49;96956.10;108846;1269;22529;-76
2023/08/24 06:31:01;;;;;;;13.90;12.60;;;;;;;24.51;74.18;96960.55;108861;1264;22529;-76
2023/08/24 06:33:33;;;;;;;13.70;12.30;;;;;;;24.45;74.38;96957.95;108843;1272;25243;-76
2023/08/24 06:36:04;;;;;;;16.20;13.00;;;;;;;24.60;74.94;96957.84;108913;1272;22658;-76
2023/08/24 06:38:33;;;;;;;13.70;12.20;;;;;;;24.70;74.55;96959.09;108866;1272;25249;-76
2023/08/24 06:41:02;;;;;;;13.90;12.60;;;;;;;24.82;74.48;96958.83;108831;1269;22519;-76
2023/08/24 06:43:32;;;;;;;;;;;;;;;24.99;74.10;96953.38;108905;1271;22499;-77
2023/08/24 06:46:03;;;;;;;13.80;12.40;;;;;;;25.12;74.12;96950.35;108919;1272;22480;-76
2023/08/24 06:48:31;;;;;;;13.90;12.50;;;;;;;25.28;74.13;96948.19;108789;1265;24362;-77
2023/08/24 06:51:00;;;;;;;13.70;12.30;;;;;;;25.46;73.78;96952.01;108862;1264;22539;-77
2023/08/24 06:53:29;;;;;;;16.10;13.60;;;;;;;25.54;73.53;96954.37;108866;1269;22557;-77
2023/08/24 06:55:58;;;;;;;13.80;12.40;;;;;;;25.60;72.88;96957.70;108913;1272;22524;-77
2023/08/24 06:58:27;;;;;;;14.40;13.10;;;;;;;25.56;72.62;96953.77;108843;1266;22555;-77
2023/08/24 07:00:57;;;;;;;14.20;12.80;;;;;;;25.62;72.74;96956.96;108877;1268;22516;-77
2023/08/24 07:03:26;;;;;;;13.00;11.80;;;;;;;25.73;72.40;96959.38;108847;1269;22517;-76
2023/08/24 07:05:55;;;;;;;13.40;12.10;;;;;;;25.88;72.30;96959.58;108832;1272;22544;-76
2023/08/24 07:08:23;;;;;;;13.10;11.80;;;;;;;26.05;71.73;96963.04;108841;1271;22505;-76
2023/08/24 07:10:52;;;;;;;13.30;12.00;;;;;;;26.15;71.30;96965.86;108849;1271;22542;-75
2023/08/24 07:13:20;;;;;;;15.30;12.10;;;;;;;26.26;71.07;96968.65;108904;1271;22503;-76
2023/08/24 07:15:49;;;;;;;13.60;12.10;;;;;;;26.34;70.65;96968.52;108862;1272;22528;-76
2023/08/24 07:18:17;;;;;;;;;;;;;;;26.35;70.12;96963.79;108899;1268;22498;-76
2023/08/24 07:20:46;;;;;;;12.80;11.30;;;;;;;26.30;69.92;96970.00;108862;1266;22518;-76
2023/08/24 07:23:14;;;;;;;12.70;11.40;;;;;;;26.32;69.79;96972.13;108856;1267;23185;-76
2023/08/24 07:25:42;;;;;;;12.90;11.60;;;;;;;26.39;69.49;96971.45;108897;1272;22540;-76
2023/08/24 07:28:12;;;;;;;12.50;11.20;;;;;;;26.35;68.61;96974.83;108630;1272;333495;-75
2023/08/24 07:30:39;;;;;;;;;;;;;;;26.37;68.66;96978.11;108889;1270;22507;-75
2023/08/24 07:33:09;;;;;;;12.10;10.80;;;;;;;26.47;68.78;96975.73;108871;1268;22544;-75
2023/08/24 07:35:36;;;;;;;;;;;;;;;26.60;68.69;96978.50;108881;1271;22510;-76
2023/08/24 07:38:05;;;;;;;12.00;10.80;;;;;;;26.77;68.40;96973.46;108826;1271;22570;-75
2023/08/24 07:40:34;;;;;;;11.60;10.40;;;;;;;26.80;67.77;96973.17;108900;1271;22542;-75
2023/08/24 07:43:02;;;;;;;11.90;10.70;;;;;;;26.85;67.14;96969.64;108883;1266;22484;-76
2023/08/24 07:45:31;;;;;;;12.40;10.50;;;;;;;26.82;66.80;96971.40;108840;1271;22516;-76
2023/08/24 07:47:59;;;;;;;12.60;10.70;;;;;;;26.79;66.75;96973.41;108823;1272;23162;-76
2023/08/24 07:50:28;;;;;;;12.00;10.30;;;;;;;26.81;66.46;96972.33;108848;1269;26446;-75
2023/08/24 07:52:56;;;;;;;;;;;;;;;26.93;67.08;96974.30;108877;1272;22518;-76
2023/08/24 07:55:25;;;;;;;10.60;9.50;;;;;;;27.08;66.85;96974.38;108894;1271;25299;-76
2023/08/24 07:57:54;;;;;;;10.60;9.60;;;;;;;27.27;67.14;96975.61;108930;1266;22627;-76
2023/08/24 08:00:24;;;;;;;12.30;11.00;;;;;;;27.35;66.65;96977.92;108847;1271;21757;-76
2023/08/24 08:02:53;;;;;;;11.80;10.50;;;;;;;27.33;65.75;96977.28;108866;1264;24293;-76
2023/08/24 08:05:22;;;;;;;13.50;10.80;;;;;;;27.19;65.51;96976.88;108903;1272;22526;-76
2023/08/24 08:07:51;;;;;;;11.60;10.30;;;;;;;26.78;64.86;96973.70;108911;1266;22538;-76
2023/08/24 08:10:21;;;;;;;11.90;10.50;;;;;;;26.44;65.38;96978.33;108893;1266;22517;-77
2023/08/24 08:12:49;;;;;;;12.50;11.30;;;;;;;26.10;65.37;96977.38;108910;1269;23257;-76
2023/08/24 08:15:19;;;;;;;11.70;10.60;;;;;;;25.72;65.69;96975.73;108915;1272;22525;-76
2023/08/24 08:17:46;;;;;;;;;;;;;;;25.44;65.73;96974.09;108936;1272;24442;-76
2023/08/24 08:20:17;;;;;;;11.50;10.40;;;;;;;25.24;65.83;96976.97;108885;1264;25389;-76
2023/08/24 08:22:46;;;;;;;10.50;9.10;;;;;;;25.20;66.29;96977.60;108943;1272;22527;-76
2023/08/24 08:25:17;;;;;;;11.40;10.10;;;;;;;25.37;66.50;96972.58;108891;1265;22528;-76
2023/08/24 08:27:46;;;;;;;12.30;9.50;;;;;;;25.62;66.90;96975.67;108878;1272;24264;-76
2023/08/24 08:30:15;;;;;;;12.10;10.00;;;;;;;25.96;66.59;96977.98;108861;1269;24303;-76
2023/08/24 08:32:43;;;;;;;10.50;9.00;;;;;;;26.28;65.83;96980.86;108865;1269;22534;-76
2023/08/24 08:35:12;;;;;;;7.90;6.30;;;;;;;26.52;65.29;96977.33;108893;1266;22634;-76
2023/08/24 08:37:41;;;;;;;8.60;7.20;;;;;;;26.47;62.80;96973.39;108881;1272;24343;-76
2023/08/24 08:40:13;;;;;;;10.60;7.30;;;;;;;26.41;62.68;96972.16;108783;1271;24669;-75
2023/08/24 08:42:41;;;;;;;9.40;8.00;;;;;;;26.16;61.29;96968.91;108947;1269;22763;-76
2023/08/24 08:45:12;;;;;;;7.90;6.70;;;;;;;25.96;61.86;96970.31;108830;1264;25257;-76
2023/08/24 08:47:41;;;;;;;9.00;5.90;;;;;;;25.87;60.52;96969.34;108837;1272;22528;-76
2023/08/24 08:50:09;;;;;;;;;;;;;;;25.89;60.54;96975.02;108850;1271;22492;-76
2023/08/24 08:52:38;;;;;;;8.30;5.20;;;;;;;26.02;60.47;96976.58;108805;1266;22669;-76
2023/08/24 08:55:10;;;;;;;6.20;4.80;;;;;;;26.01;59.57;96976.81;108862;1272;22515;-75
2023/08/24 08:57:41;;;;;;;8.40;5.80;;;;;;;26.15;58.94;96973.24;108868;1272;24209;-75
2023/08/24 09:00:13;;;;;;;5.40;4.80;;;;;;;26.30;59.08;96971.87;108873;1271;25508;-75
2023/08/24 09:02:44;;;;;;;6.10;4.80;;;;;;;26.37;58.72;96968.24;108853;1269;24372;-75
2023/08/24 09:05:13;;;;;;;6.70;4.40;;;;;;;26.55;58.93;96965.70;108919;1266;22520;-76
2023/08/24 09:07:42;;;;;;;10.40;4.20;;;;;;;26.84;59.00;96968.16;108946;1272;25406;-75
2023/08/24 09:10:11;;;;;;;7.20;4.50;;;;;;;27.06;57.99;96971.09;108925;1271;24474;-76
2023/08/24 09:12:39;;;;;;;7.40;5.40;;;;;;;27.19;57.71;96972.13;108940;1271;22534;-76
2023/08/24 09:15:11;;;;;;;7.20;5.40;;;;;;;27.27;57.77;96973.65;108830;1266;22540;-76
2023/08/24 09:17:44;;;;;;;6.40;5.50;;;;;;;27.31;57.25;96968.01;108936;1271;24470;-76
2023/08/24 09:20:15;;;;;;;8.40;5.00;;;;;;;27.28;56.67;96969.08;108928;1266;22517;-76
2023/08/24 09:22:45;;;;;;;5.00;3.50;;;;;;;27.35;56.76;96970.92;108876;1271;22514;-75
2023/08/24 09:25:14;;;;;;;6.30;3.90;;;;;;;27.32;55.33;96964.67;108827;1272;22530;-75
2023/08/24 09:27:42;;;;;;;6.10;4.20;;;;;;;27.37;54.99;96961.28;108838;1271;22970;-75
2023/08/24 09:30:13;;;;;;;5.90;4.20;;;;;;;27.39;54.39;96960.35;108779;1266;22579;-76
2023/08/24 09:32:42;;;;;;;7.30;4.60;;;;;;;27.28;53.93;96961.77;108982;1269;25291;-75
2023/08/24 09:35:13;;;;;;;6.20;3.80;;;;;;;27.22;53.41;96956.74;108870;1271;22521;-75
2023/08/24 09:37:45;;;;;;;8.40;4.40;;;;;;;27.16;53.30;96952.66;108889;1264;22517;-76
2023/08/24 09:40:16;;;;;;;6.20;4.30;;;;;;;27.23;53.95;96956.52;108953;1271;24497;-76
2023/08/24 09:42:46;;;;;;;5.90;4.20;;;;;;;27.35;53.51;96956.14;108967;1271;22551;-75
2023/08/24 09:45:16;;;;;;;7.90;4.70;;;;;;;27.22;52.20;96959.15;108966;1266;22517;-76
2023/08/24 09:47:52;;;;;;;7.10;4.10;;;;;;;26.98;52.17;96956.22;109022;1264;25415;-76
2023/08/24 09:50:21;;;;;;;7.40;4.10;;;;;;;26.93;52.04;96955.25;108958;1266;22573;-75
2023/08/24 09:52:54;;;;;;;6.50;4.30;;;;;;;26.74;51.50;96953.68;108987;1266;22928;-75
2023/08/24 09:55:25;;;;;;;4.40;3.70;;;;;;;26.48;51.15;96954.14;108913;1266;22556;-75
2023/08/24 09:57:57;;;;;;;6.10;3.80;;;;;;;26.26;50.85;96954.20;109026;1266;26458;-75
2023/08/24 10:00:27;;;;;;;5.90;3.30;;;;;;;26.28;51.54;96953.44;108991;1272;22531;-75
2023/08/24 10:02:57;;;;;;;3.50;3.10;;;;;;;26.22;51.17;96953.23;108933;1268;25387;-75
2023/08/24 10:05:28;;;;;;;6.50;3.70;;;;;;;26.22;51.17;96953.31;108977;1272;22529;-75
2023/08/24 10:07:59;;;;;;;6.30;3.60;;;;;;;26.07;50.56;96952.73;108903;1265;22975;-75
2023/08/24 10:10:29;;;;;;;5.70;3.60;;;;;;;25.95;50.80;96948.02;108996;1272;24217;-76
2023/08/24 10:13:06;;;;;;;5.20;3.20;;;;;;;25.98;51.36;96951.92;108899;1248;22526;-76
2023/08/24 10:15:36;;;;;;;4.10;2.90;;;;;;;26.07;50.90;96955.61;108859;1271;22525;-75
2023/08/24 10:18:07;;;;;;;5.30;3.20;;;;;;;26.00;50.53;96955.98;108856;1269;22513;-76
2023/08/24 10:20:39;;;;;;;6.60;4.20;;;;;;;26.01;50.78;96955.54;108818;1266;24564;-76
2023/08/24 10:23:09;;;;;;;5.60;4.10;;;;;;;25.94;50.83;96958.34;108860;1271;22523;-76
2023/08/24 10:25:41;;;;;;;8.00;4.70;;;;;;;25.80;50.44;96955.05;108846;1266;22517;-76
2023/08/24 10:28:11;;;;;;;5.50;3.80;;;;;;;25.78;50.73;96956.51;108888;1271;25379;-76
2023/08/24 10:30:43;;;;;;;5.20;3.60;;;;;;;25.84;51.11;96954.95;108924;1266;23372;-76
2023/08/24 10:33:14;;;;;;;4.50;3.60;;;;;;;26.00;51.26;96956.61;108896;1269;22520;-76
2023/08/24 10:35:45;;;;;;;6.50;4.00;;;;;;;26.04;50.87;96950.77;108853;1266;24338;-76
2023/08/24 10:38:26;;;;;;;5.40;3.70;;;;;;;26.10;51.32;96947.73;108888;1272;22525;-76
2023/08/24 10:41:02;;;;;;;6.10;3.50;;;;;;;26.20;51.76;96938.84;108945;1271;24410;-76
2023/08/24 10:43:34;;;;;;;7.00;4.60;;;;;;;26.32;51.87;96935.55;108996;1264;22521;-76
2023/08/24 10:46:04;;;;;;;5.40;3.40;;;;;;;26.35;50.98;96935.98;108938;1271;22540;-76
2023/08/24 10:49:00;;;;;;;5.40;3.50;;;;;;;26.33;50.52;96933.48;108931;1271;22531;-76
2023/08/24 10:51:30;;;;;;;5.20;3.60;;;;;;;26.17;49.89;96929.24;108864;1271;22511;-75
2023/08/24 10:54:00;;;;;;;5.20;3.80;;;;;;;26.11;50.33;96928.88;108865;1269;22521;-76
2023/08/24 10:56:35;;;;;;;5.60;3.40;;;;;;;26.15;50.57;96926.81;108803;1271;22514;-76
2023/08/24 10:59:17;;;;;;;5.40;3.80;;;;;;;26.06;49.86;96921.68;108805;1266;22524;-75
2023/08/24 11:01:59;;;;;;;4.60;3.70;;;;;;;25.94;49.96;96918.84;108934;1271;22855;-75
2023/08/24 11:04:29;;;;;;;6.40;3.40;;;;;;;25.87;50.05;96920.44;108884;1271;25303;-74
2023/08/24 11:06:59;;;;;;;3.90;2.90;;;;;;;25.92;50.18;96918.81;108886;1269;25342;-75
2023/08/24 11:09:47;;;;;;;4.30;3.40;;;;;;;25.95;50.35;96923.18;108940;1272;24234;-74
2023/08/24 11:12:16;;;;;;;6.90;3.70;;;;;;;25.84;49.42;96924.98;108838;1271;22532;-74
2023/08/24 11:14:54;;;;;;;6.20;3.30;;;;;;;25.79;49.74;96919.96;108904;1267;22511;-75
2023/08/24 11:17:23;;;;;;;6.90;3.60;;;;;;;25.87;50.16;96922.52;108790;1266;22527;-76
2023/08/24 11:19:54;;;;;;;5.50;3.40;;;;;;;25.91;50.29;96920.49;108839;1266;22529;-76
2023/08/24 11:22:23;;;;;;;4.90;3.60;;;;;;;26.06;51.18;96921.83;108892;1264;22526;-76
2023/08/24 11:24:51;;;;;;;4.90;3.50;;;;;;;26.24;51.41;96917.67;108740;1271;22541;-76
2023/08/24 11:27:23;;;;;;;6.70;3.10;;;;;;;26.39;51.58;96914.58;108877;1269;40396;-75